createdAt,value
2017-06-26T00:00:42.236Z,0
2017-06-26T00:01:42.272Z,0
2017-06-26T00:02:42.323Z,0
2017-06-26T00:03:42.358Z,0
2017-06-26T00:04:42.715Z,0
2017-06-26T00:05:42.439Z,0
2017-06-26T00:06:42.481Z,0
2017-06-26T00:07:42.517Z,0
2017-06-26T00:08:42.566Z,0
2017-06-26T00:09:42.600Z,0
2017-06-26T00:10:42.643Z,0
2017-06-26T00:11:42.990Z,0
2017-06-26T00:12:42.722Z,0
2017-06-26T00:13:43.378Z,0
2017-06-26T00:14:42.816Z,0
2017-06-26T00:15:42.849Z,0
2017-06-26T00:16:42.889Z,0
2017-06-26T00:17:43.237Z,0
2017-06-26T00:18:42.969Z,0
2017-06-26T00:19:43.313Z,0
2017-06-26T00:20:43.361Z,0
2017-06-26T00:21:43.563Z,0
2017-06-26T00:22:43.129Z,0
2017-06-26T00:23:43.508Z,0
2017-06-26T00:24:43.240Z,0
2017-06-26T00:25:43.251Z,0
2017-06-26T00:26:43.295Z,0
2017-06-26T00:27:43.330Z,0
2017-06-26T00:28:43.681Z,0
2017-06-26T00:29:43.725Z,0
2017-06-26T00:30:43.761Z,0
2017-06-26T00:31:43.803Z,0
2017-06-26T00:32:43.534Z,0
2017-06-26T00:33:43.576Z,0
2017-06-26T00:34:43.613Z,0
2017-06-26T00:35:43.660Z,0
2017-06-26T00:36:43.695Z,0
2017-06-26T00:37:44.042Z,0
2017-06-26T00:38:43.771Z,0
2017-06-26T00:39:43.815Z,0
2017-06-26T00:40:44.169Z,0
2017-06-26T00:41:44.208Z,0
2017-06-26T00:42:43.934Z,0
2017-06-26T00:43:43.979Z,0
2017-06-26T00:44:44.340Z,0
2017-06-26T00:45:44.363Z,0
2017-06-26T00:46:44.106Z,0
2017-06-26T00:47:44.446Z,0
2017-06-26T00:48:44.181Z,0
2017-06-26T00:49:44.236Z,0
2017-06-26T00:50:44.265Z,0
2017-06-26T00:51:44.918Z,0
2017-06-26T00:52:44.340Z,0
2017-06-26T00:53:44.385Z,0
2017-06-26T00:54:44.421Z,0
2017-06-26T00:55:44.787Z,0
2017-06-26T00:56:44.504Z,0
2017-06-26T00:57:44.853Z,0
2017-06-26T00:58:44.599Z,0
2017-06-26T00:59:44.933Z,0
2017-06-26T01:00:44.665Z,0
2017-06-26T01:01:44.710Z,0
2017-06-26T01:02:44.749Z,0
2017-06-26T01:03:44.791Z,0
2017-06-26T01:04:44.828Z,0
2017-06-26T01:05:44.866Z,0
2017-06-26T01:06:44.908Z,0
2017-06-26T01:07:45.255Z,0
2017-06-26T01:08:44.993Z,0
2017-06-26T01:09:45.028Z,0
2017-06-26T01:10:45.067Z,0
2017-06-26T01:11:45.417Z,0
2017-06-26T01:12:45.154Z,0
2017-06-26T01:13:45.199Z,0
2017-06-26T01:14:45.235Z,0
2017-06-26T01:15:45.585Z,0
2017-06-26T01:16:45.927Z,0
2017-06-26T01:17:45.661Z,0
2017-06-26T01:18:45.392Z,0
2017-06-26T01:19:45.431Z,0
2017-06-26T01:20:45.781Z,0
2017-06-26T01:21:45.517Z,0
2017-06-26T01:22:45.554Z,0
2017-06-26T01:23:45.905Z,0
2017-06-26T01:24:45.638Z,0
2017-06-26T01:25:45.683Z,0
2017-06-26T01:26:46.333Z,0
2017-06-26T01:27:46.379Z,0
2017-06-26T01:28:46.112Z,0
2017-06-26T01:29:45.838Z,0
2017-06-26T01:30:45.881Z,0
2017-06-26T01:31:45.921Z,0
2017-06-26T01:32:45.958Z,0
2017-06-26T01:33:46.014Z,0
2017-06-26T01:34:46.041Z,0
2017-06-26T01:35:46.087Z,0
2017-06-26T01:36:46.120Z,0
2017-06-26T01:37:46.471Z,0
2017-06-26T01:38:46.214Z,0
2017-06-26T01:39:47.162Z,0
2017-06-26T01:40:46.280Z,0
2017-06-26T01:41:46.630Z,0
2017-06-26T01:42:46.668Z,0
2017-06-26T01:43:46.411Z,0
2017-06-26T01:44:46.757Z,0
2017-06-26T01:45:46.482Z,0
2017-06-26T01:46:46.523Z,0
2017-06-26T01:47:46.560Z,0
2017-06-26T01:48:46.908Z,0
2017-06-26T01:49:46.637Z,0
2017-06-26T01:50:46.995Z,0
2017-06-26T01:51:47.347Z,0
2017-06-26T01:52:46.765Z,0
2017-06-26T01:53:47.113Z,0
2017-06-26T01:54:46.848Z,0
2017-06-26T01:55:47.503Z,0
2017-06-26T01:56:46.934Z,0
2017-06-26T01:57:46.963Z,0
2017-06-26T01:58:47.005Z,0
2017-06-26T01:59:47.051Z,0
2017-06-26T02:00:47.402Z,0
2017-06-26T02:01:47.128Z,0
2017-06-26T02:02:47.476Z,0
2017-06-26T02:03:47.822Z,0
2017-06-26T02:04:47.555Z,0
2017-06-26T02:05:47.318Z,0
2017-06-26T02:06:47.634Z,0
2017-06-26T02:07:47.362Z,0
2017-06-26T02:08:47.405Z,0
2017-06-26T02:09:47.445Z,0
2017-06-26T02:10:47.797Z,0
2017-06-26T02:11:47.528Z,4
2017-06-26T02:12:47.879Z,4
2017-06-26T02:13:47.916Z,4
2017-06-26T02:14:48.260Z,0
2017-06-26T02:15:47.683Z,0
2017-06-26T02:16:47.727Z,4
2017-06-26T02:17:47.765Z,4
2017-06-26T02:18:47.806Z,4
2017-06-26T02:19:47.850Z,4
2017-06-26T02:20:48.496Z,4
2017-06-26T02:21:48.233Z,4
2017-06-26T02:22:47.968Z,4
2017-06-26T02:23:48.313Z,4
2017-06-26T02:24:48.356Z,8
2017-06-26T02:25:48.085Z,4
2017-06-26T02:26:48.744Z,8
2017-06-26T02:27:48.483Z,8
2017-06-26T02:28:48.207Z,8
2017-06-26T02:29:48.554Z,8
2017-06-26T02:30:48.591Z,16
2017-06-26T02:31:48.630Z,16
2017-06-26T02:32:48.363Z,20
2017-06-26T02:33:48.406Z,20
2017-06-26T02:34:48.446Z,24
2017-06-26T02:35:48.495Z,20
2017-06-26T02:36:48.528Z,28
2017-06-26T02:37:48.876Z,24
2017-06-26T02:38:48.607Z,28
2017-06-26T02:39:48.650Z,32
2017-06-26T02:40:48.993Z,32
2017-06-26T02:41:49.033Z,36
2017-06-26T02:42:49.076Z,36
2017-06-26T02:43:49.113Z,40
2017-06-26T02:44:48.846Z,40
2017-06-26T02:45:49.204Z,44
2017-06-26T02:46:49.235Z,48
2017-06-26T02:47:49.276Z,48
2017-06-26T02:48:49.006Z,52
2017-06-26T02:49:49.047Z,56
2017-06-26T02:50:49.090Z,60
2017-06-26T02:51:49.130Z,60
2017-06-26T02:52:49.786Z,64
2017-06-26T02:53:49.514Z,68
2017-06-26T02:54:49.245Z,72
2017-06-26T02:55:49.602Z,76
2017-06-26T02:56:49.334Z,80
2017-06-26T02:57:49.368Z,84
2017-06-26T02:58:49.717Z,88
2017-06-26T02:59:49.450Z,88
2017-06-26T03:00:49.488Z,88
2017-06-26T03:01:49.528Z,92
2017-06-26T03:02:49.600Z,96
2017-06-26T03:03:49.629Z,96
2017-06-26T03:04:50.268Z,104
2017-06-26T03:05:49.702Z,108
2017-06-26T03:06:49.734Z,116
2017-06-26T03:07:50.078Z,124
2017-06-26T03:08:49.811Z,136
2017-06-26T03:09:49.852Z,148
2017-06-26T03:10:50.506Z,156
2017-06-26T03:11:49.927Z,168
2017-06-26T03:12:50.276Z,176
2017-06-26T03:13:50.320Z,196
2017-06-26T03:14:50.356Z,212
2017-06-26T03:15:50.705Z,236
2017-06-26T03:16:50.130Z,256
2017-06-26T03:17:50.505Z,268
2017-06-26T03:18:50.223Z,288
2017-06-26T03:19:50.567Z,316
2017-06-26T03:20:50.602Z,352
2017-06-26T03:21:50.336Z,388
2017-06-26T03:22:50.378Z,420
2017-06-26T03:23:50.722Z,460
2017-06-26T03:24:50.981Z,480
2017-06-26T03:25:50.807Z,500
2017-06-26T03:26:50.529Z,524
2017-06-26T03:27:51.190Z,544
2017-06-26T03:28:50.619Z,572
2017-06-26T03:29:50.657Z,580
2017-06-26T03:30:51.006Z,584
2017-06-26T03:31:51.043Z,572
2017-06-26T03:32:50.781Z,544
2017-06-26T03:33:51.121Z,524
2017-06-26T03:34:50.863Z,516
2017-06-26T03:35:50.895Z,516
2017-06-26T03:36:50.937Z,504
2017-06-26T03:37:51.283Z,484
2017-06-26T03:38:51.016Z,480
2017-06-26T03:39:51.056Z,472
2017-06-26T03:40:51.093Z,452
2017-06-26T03:41:51.141Z,468
2017-06-26T03:42:51.175Z,532
2017-06-26T03:43:51.524Z,592
2017-06-26T03:44:51.563Z,640
2017-06-26T03:45:51.297Z,672
2017-06-26T03:46:51.338Z,712
2017-06-26T03:47:51.385Z,764
2017-06-26T03:48:51.727Z,828
2017-06-26T03:49:52.079Z,892
2017-06-26T03:50:51.803Z,964
2017-06-26T03:51:51.536Z,1008
2017-06-26T03:52:52.194Z,1044
2017-06-26T03:53:51.619Z,1076
2017-06-26T03:54:51.668Z,1140
2017-06-26T03:55:52.008Z,1196
2017-06-26T03:56:51.742Z,1264
2017-06-26T03:57:51.783Z,1348
2017-06-26T03:58:51.818Z,1432
2017-06-26T03:59:51.861Z,1528
2017-06-26T04:00:52.206Z,1592
2017-06-26T04:01:52.247Z,1600
2017-06-26T04:02:52.287Z,1596
2017-06-26T04:03:52.020Z,1576
2017-06-26T04:04:52.369Z,1560
2017-06-26T04:05:52.419Z,1544
2017-06-26T04:06:52.148Z,1576
2017-06-26T04:07:52.183Z,1648
2017-06-26T04:08:52.533Z,1704
2017-06-26T04:09:52.266Z,1680
2017-06-26T04:10:52.302Z,1584
2017-06-26T04:11:52.652Z,1496
2017-06-26T04:12:52.691Z,1404
2017-06-26T04:13:52.422Z,1296
2017-06-26T04:14:52.772Z,1172
2017-06-26T04:15:52.510Z,1080
2017-06-26T04:16:52.856Z,1060
2017-06-26T04:17:52.891Z,992
2017-06-26T04:18:52.624Z,992
2017-06-26T04:19:52.670Z,1004
2017-06-26T04:20:52.709Z,984
2017-06-26T04:21:53.059Z,980
2017-06-26T04:22:52.789Z,1048
2017-06-26T04:23:53.135Z,1100
2017-06-26T04:24:52.867Z,1164
2017-06-26T04:25:53.220Z,1288
2017-06-26T04:26:53.257Z,1260
2017-06-26T04:27:52.989Z,1260
2017-06-26T04:28:53.034Z,1368
2017-06-26T04:29:53.070Z,1532
2017-06-26T04:30:53.728Z,1764
2017-06-26T04:31:53.456Z,2192
2017-06-26T04:32:53.189Z,3040
2017-06-26T04:33:53.230Z,3516
2017-06-26T04:34:53.275Z,3584
2017-06-26T04:35:53.320Z,3496
2017-06-26T04:36:53.663Z,3544
2017-06-26T04:37:53.396Z,3864
2017-06-26T04:38:53.437Z,3924
2017-06-26T04:39:53.477Z,4460
2017-06-26T04:40:53.519Z,7988
2017-06-26T04:41:53.558Z,7572
2017-06-26T04:42:53.905Z,4248
2017-06-26T04:43:53.638Z,2088
2017-06-26T04:44:54.293Z,1848
2017-06-26T04:45:54.029Z,1600
2017-06-26T04:46:53.767Z,1436
2017-06-26T04:47:54.112Z,1400
2017-06-26T04:48:53.843Z,1304
2017-06-26T04:49:53.884Z,1184
2017-06-26T04:50:54.236Z,1108
2017-06-26T04:51:53.963Z,1020
2017-06-26T04:52:54.321Z,932
2017-06-26T04:53:54.045Z,864
2017-06-26T04:54:54.088Z,848
2017-06-26T04:55:54.132Z,812
2017-06-26T04:56:54.172Z,748
2017-06-26T04:57:54.374Z,736
2017-06-26T04:58:54.249Z,732
2017-06-26T04:59:54.289Z,756
2017-06-26T05:00:54.335Z,792
2017-06-26T05:01:54.712Z,860
2017-06-26T05:02:54.413Z,1096
2017-06-26T05:03:54.779Z,1556
2017-06-26T05:04:54.494Z,2184
2017-06-26T05:05:54.854Z,2676
2017-06-26T05:06:54.887Z,2800
2017-06-26T05:07:54.925Z,2560
2017-06-26T05:08:54.964Z,2364
2017-06-26T05:09:55.005Z,2628
2017-06-26T05:10:55.048Z,2964
2017-06-26T05:11:55.089Z,3472
2017-06-26T05:12:54.826Z,3920
2017-06-26T05:13:54.858Z,4092
2017-06-26T05:14:54.898Z,4268
2017-06-26T05:15:55.477Z,4756
2017-06-26T05:16:55.320Z,5388
2017-06-26T05:17:55.331Z,5516
2017-06-26T05:18:55.378Z,5228
2017-06-26T05:19:55.411Z,5328
2017-06-26T05:20:55.457Z,5168
2017-06-26T05:21:55.496Z,4976
2017-06-26T05:22:55.230Z,5216
2017-06-26T05:23:55.573Z,5396
2017-06-26T05:24:55.309Z,5388
2017-06-26T05:25:55.354Z,5536
2017-06-26T05:26:55.398Z,5188
2017-06-26T05:27:55.435Z,5068
2017-06-26T05:28:55.481Z,4500
2017-06-26T05:29:55.515Z,3712
2017-06-26T05:30:55.561Z,4464
2017-06-26T05:31:55.602Z,5132
2017-06-26T05:32:55.643Z,5800
2017-06-26T05:33:55.683Z,6296
2017-06-26T05:34:55.774Z,6516
2017-06-26T05:35:55.764Z,7040
2017-06-26T05:36:55.802Z,8328
2017-06-26T05:37:56.154Z,9540
2017-06-26T05:38:56.192Z,9284
2017-06-26T05:39:55.928Z,12432
2017-06-26T05:40:56.276Z,13220
2017-06-26T05:41:56.329Z,15788
2017-06-26T05:42:56.056Z,26816
2017-06-26T05:43:56.096Z,30144
2017-06-26T05:44:56.444Z,31904
2017-06-26T05:45:56.182Z,36288
2017-06-26T05:46:56.233Z,40512
2017-06-26T05:47:56.267Z,40800
2017-06-26T05:48:56.309Z,31936
2017-06-26T05:49:56.973Z,30304
2017-06-26T05:50:56.406Z,45472
2017-06-26T05:51:56.447Z,41888
2017-06-26T05:52:57.121Z,41216
2017-06-26T05:53:56.544Z,41760
2017-06-26T05:54:56.894Z,42752
2017-06-26T05:55:56.942Z,44288
2017-06-26T05:56:56.697Z,44032
2017-06-26T05:57:56.729Z,46112
2017-06-26T05:58:57.401Z,46496
2017-06-26T05:59:56.829Z,45376
2017-06-26T06:00:57.187Z,44992
2017-06-26T06:01:56.985Z,45376
2017-06-26T06:02:56.979Z,43936
2017-06-26T06:03:57.067Z,43296
2017-06-26T06:04:57.074Z,41472
2017-06-26T06:05:57.123Z,42816
2017-06-26T06:06:57.173Z,44128
2017-06-26T06:07:57.862Z,46080
2017-06-26T06:08:57.274Z,47936
2017-06-26T06:09:57.329Z,49792
2017-06-26T06:10:57.382Z,49664
2017-06-26T06:11:57.737Z,46944
2017-06-26T06:12:57.794Z,44736
2017-06-26T06:13:57.846Z,45504
2017-06-26T06:14:57.891Z,48768
2017-06-26T06:15:57.966Z,52192
2017-06-26T06:16:57.697Z,53760
2017-06-26T06:17:57.745Z,52992
2017-06-26T06:18:57.798Z,51136
2017-06-26T06:19:57.846Z,48800
2017-06-26T06:20:57.905Z,46688
2017-06-26T06:21:57.961Z,46048
2017-06-26T06:22:58.344Z,46528
2017-06-26T06:23:58.060Z,48320
2017-06-26T06:24:58.117Z,49856
2017-06-26T06:25:58.476Z,52992
2017-06-26T06:26:58.532Z,58880
2017-06-26T06:27:58.283Z,60672
2017-06-26T06:28:58.330Z,60704
2017-06-26T06:29:58.389Z,57568
2017-06-26T06:30:58.759Z,52800
2017-06-26T06:31:59.521Z,48896
2017-06-26T06:32:58.853Z,47776
2017-06-26T06:33:58.962Z,46336
2017-06-26T06:34:58.677Z,48608
2017-06-26T06:35:58.713Z,52064
2017-06-26T06:36:59.186Z,56256
2017-06-26T06:37:58.817Z,61344
2017-06-26T06:38:58.987Z,64704
2017-06-26T06:39:59.532Z,66720
2017-06-26T06:40:59.138Z,66016
2017-06-26T06:41:59.361Z,65376
2017-06-26T06:42:59.419Z,63936
2017-06-26T06:43:59.451Z,40960
2017-06-26T06:44:59.632Z,58080
2017-06-26T06:45:59.558Z,56672
2017-06-26T06:46:59.637Z,57248
2017-06-26T06:47:59.363Z,59072
2017-06-26T06:48:59.422Z,60288
2017-06-26T06:49:59.489Z,60640
2017-06-26T06:50:59.535Z,60928
2017-06-26T06:51:59.885Z,59232
2017-06-26T06:52:59.941Z,60256
2017-06-26T06:53:59.687Z,61728
2017-06-26T06:55:00.051Z,63424
2017-06-26T06:56:00.108Z,65120
2017-06-26T06:56:59.854Z,65088
2017-06-26T06:58:00.215Z,64320
2017-06-26T06:58:59.964Z,60384
2017-06-26T07:00:00.328Z,58496
2017-06-26T07:01:00.077Z,56672
2017-06-26T07:02:00.447Z,57504
2017-06-26T07:03:00.188Z,58656
2017-06-26T07:04:00.245Z,61696
2017-06-26T07:05:00.298Z,64736
2017-06-26T07:06:00.663Z,65728
2017-06-26T07:07:00.759Z,66816
2017-06-26T07:08:00.774Z,68192
2017-06-26T07:09:00.521Z,68800
2017-06-26T07:10:00.578Z,69632
2017-06-26T07:11:00.635Z,70976
2017-06-26T07:12:00.691Z,74464
2017-06-26T07:13:00.742Z,77184
2017-06-26T07:14:00.806Z,78432
2017-06-26T07:15:00.860Z,78688
2017-06-26T07:16:00.920Z,80096
2017-06-26T07:17:00.970Z,80256
2017-06-26T07:18:01.032Z,83520
2017-06-26T07:19:01.083Z,33408
2017-06-26T07:20:01.139Z,38656
2017-06-26T07:21:01.500Z,85024
2017-06-26T07:22:01.555Z,24864
2017-06-26T07:23:01.931Z,28256
2017-06-26T07:24:01.680Z,72192
2017-06-26T07:25:01.718Z,40896
2017-06-26T07:26:01.776Z,76000
2017-06-26T07:27:01.828Z,20352
2017-06-26T07:28:01.908Z,75136
2017-06-26T07:29:01.932Z,74496
2017-06-26T07:30:01.676Z,73216
2017-06-26T07:31:02.363Z,74656
2017-06-26T07:32:02.093Z,75072
2017-06-26T07:33:01.846Z,67104
2017-06-26T07:34:03.426Z,73248
2017-06-26T07:35:01.950Z,77440
2017-06-26T07:36:02.000Z,81440
2017-06-26T07:37:02.678Z,68864
2017-06-26T07:38:02.126Z,28800
2017-06-26T07:39:02.478Z,86464
2017-06-26T07:40:02.223Z,61376
2017-06-26T07:41:02.600Z,39840
2017-06-26T07:42:02.335Z,87616
2017-06-26T07:43:02.696Z,15692
2017-06-26T07:44:02.752Z,89440
2017-06-26T07:45:02.501Z,87680
2017-06-26T07:46:02.555Z,36896
2017-06-26T07:47:02.611Z,83264
2017-06-26T07:48:02.975Z,88000
2017-06-26T07:49:02.722Z,76608
2017-06-26T07:50:03.080Z,33984
2017-06-26T07:51:02.829Z,89600
2017-06-26T07:52:02.887Z,45312
2017-06-26T07:53:03.246Z,27168
2017-06-26T07:54:02.993Z,27392
2017-06-26T07:55:03.047Z,100768
2017-06-26T07:56:03.719Z,26368
2017-06-26T07:57:03.154Z,20608
2017-06-26T07:58:03.206Z,22400
2017-06-26T07:59:03.883Z,20992
2017-06-26T08:00:03.348Z,23296
2017-06-26T08:01:03.398Z,26432
2017-06-26T08:02:03.744Z,25984
2017-06-26T08:03:03.474Z,28416
2017-06-26T08:04:03.869Z,29472
2017-06-26T08:05:03.950Z,25216
2017-06-26T08:06:03.626Z,28864
2017-06-26T08:07:03.984Z,23328
2017-06-26T08:08:03.880Z,25408
2017-06-26T08:09:03.771Z,36352
2017-06-26T08:10:03.834Z,37536
2017-06-26T08:11:03.878Z,26624
2017-06-26T08:12:03.927Z,25568
2017-06-26T08:13:04.280Z,36064
2017-06-26T08:14:04.335Z,36288
2017-06-26T08:15:04.380Z,30496
2017-06-26T08:16:04.431Z,26720
2017-06-26T08:17:04.481Z,35520
2017-06-26T08:18:04.221Z,47072
2017-06-26T08:19:04.592Z,40832
2017-06-26T08:20:04.625Z,56864
2017-06-26T08:21:04.370Z,31968
2017-06-26T08:22:05.032Z,96064
2017-06-26T08:23:04.660Z,104064
2017-06-26T08:24:05.133Z,23840
2017-06-26T08:25:04.874Z,84000
2017-06-26T08:26:04.923Z,102336
2017-06-26T08:27:04.664Z,30144
2017-06-26T08:28:05.025Z,30112
2017-06-26T08:29:04.771Z,109504
2017-06-26T08:30:05.126Z,103712
2017-06-26T08:31:04.866Z,28192
2017-06-26T08:32:05.534Z,27424
2017-06-26T08:33:04.978Z,23040
2017-06-26T08:34:05.026Z,26880
2017-06-26T08:35:05.073Z,89856
2017-06-26T08:36:05.429Z,22048
2017-06-26T08:37:05.171Z,33632
2017-06-26T08:38:05.219Z,33408
2017-06-26T08:39:05.275Z,39296
2017-06-26T08:40:05.322Z,33536
2017-06-26T08:41:05.683Z,83872
2017-06-26T08:42:05.426Z,19616
2017-06-26T08:43:06.097Z,18176
2017-06-26T08:44:06.139Z,21792
2017-06-26T08:45:05.877Z,34144
2017-06-26T08:46:05.622Z,39168
2017-06-26T08:47:05.672Z,45248
2017-06-26T08:48:06.332Z,45792
2017-06-26T08:49:05.765Z,18976
2017-06-26T08:50:05.819Z,14012
2017-06-26T08:51:06.174Z,11120
2017-06-26T08:52:06.528Z,10252
2017-06-26T08:53:06.272Z,8500
2017-06-26T08:54:06.321Z,6796
2017-06-26T08:55:06.064Z,6572
2017-06-26T08:56:06.417Z,6028
2017-06-26T08:57:06.471Z,5812
2017-06-26T08:58:06.204Z,5520
2017-06-26T08:59:06.561Z,5724
2017-06-26T09:00:06.629Z,5184
2017-06-26T09:01:06.657Z,5044
2017-06-26T09:02:07.017Z,5388
2017-06-26T09:03:06.752Z,4544
2017-06-26T09:04:07.099Z,3492
2017-06-26T09:05:06.847Z,3384
2017-06-26T09:06:06.578Z,3204
2017-06-26T09:07:06.931Z,3468
2017-06-26T09:08:07.285Z,3520
2017-06-26T09:09:07.030Z,3872
2017-06-26T09:10:07.375Z,4388
2017-06-26T09:11:06.808Z,4736
2017-06-26T09:12:06.848Z,4384
2017-06-26T09:13:06.894Z,4080
2017-06-26T09:14:06.943Z,4528
2017-06-26T09:15:07.294Z,5680
2017-06-26T09:16:07.033Z,6904
2017-06-26T09:17:07.074Z,8080
2017-06-26T09:18:07.118Z,8788
2017-06-26T09:19:07.161Z,8956
2017-06-26T09:20:07.206Z,8588
2017-06-26T09:21:07.259Z,7996
2017-06-26T09:22:07.298Z,7324
2017-06-26T09:23:07.654Z,6164
2017-06-26T09:24:07.385Z,5480
2017-06-26T09:25:07.739Z,4996
2017-06-26T09:26:07.476Z,4540
2017-06-26T09:27:07.834Z,4056
2017-06-26T09:28:07.868Z,3568
2017-06-26T09:29:07.605Z,3060
2017-06-26T09:30:07.652Z,2732
2017-06-26T09:31:07.695Z,2616
2017-06-26T09:32:08.046Z,2428
2017-06-26T09:33:07.785Z,2400
2017-06-26T09:34:08.443Z,2420
2017-06-26T09:35:07.872Z,2444
2017-06-26T09:36:07.914Z,2480
2017-06-26T09:37:07.956Z,2480
2017-06-26T09:38:08.311Z,2448
2017-06-26T09:39:08.352Z,2680
2017-06-26T09:40:08.389Z,3856
2017-06-26T09:41:08.127Z,4624
2017-06-26T09:42:08.171Z,4816
2017-06-26T09:43:08.437Z,4856
2017-06-26T09:44:08.566Z,4672
2017-06-26T09:45:08.918Z,4228
2017-06-26T09:46:08.344Z,3748
2017-06-26T09:47:08.695Z,3604
2017-06-26T09:48:08.742Z,3616
2017-06-26T09:49:08.702Z,3544
2017-06-26T09:50:08.519Z,3492
2017-06-26T09:51:08.561Z,3612
2017-06-26T09:52:08.604Z,3728
2017-06-26T09:53:08.642Z,3584
2017-06-26T09:54:08.690Z,3484
2017-06-26T09:55:08.733Z,3432
2017-06-26T09:56:09.386Z,3120
2017-06-26T09:57:08.817Z,2832
2017-06-26T09:58:09.168Z,2720
2017-06-26T09:59:08.902Z,2644
2017-06-26T10:00:08.945Z,2708
2017-06-26T10:01:09.295Z,2876
2017-06-26T10:02:09.645Z,3060
2017-06-26T10:03:09.385Z,3484
2017-06-26T10:04:09.118Z,3668
2017-06-26T10:05:09.461Z,3640
2017-06-26T10:06:09.201Z,3676
2017-06-26T10:07:09.552Z,3796
2017-06-26T10:08:09.283Z,4240
2017-06-26T10:09:09.329Z,5088
2017-06-26T10:10:09.373Z,5636
2017-06-26T10:11:09.718Z,5788
2017-06-26T10:12:09.760Z,6080
2017-06-26T10:13:09.497Z,7136
2017-06-26T10:14:09.544Z,8316
2017-06-26T10:15:09.582Z,9900
2017-06-26T10:16:09.623Z,9700
2017-06-26T10:17:10.613Z,8464
2017-06-26T10:18:09.811Z,8812
2017-06-26T10:19:09.764Z,8780
2017-06-26T10:20:10.106Z,8208
2017-06-26T10:21:10.146Z,9916
2017-06-26T10:22:10.500Z,8908
2017-06-26T10:23:10.552Z,7648
2017-06-26T10:24:10.275Z,8344
2017-06-26T10:25:10.335Z,7928
2017-06-26T10:26:10.363Z,6964
2017-06-26T10:27:10.097Z,6788
2017-06-26T10:28:10.147Z,6768
2017-06-26T10:29:10.796Z,6408
2017-06-26T10:30:11.146Z,5848
2017-06-26T10:31:10.271Z,6028
2017-06-26T10:32:13.686Z,6284
2017-06-26T10:33:10.356Z,6124
2017-06-26T10:34:10.705Z,5844
2017-06-26T10:35:10.746Z,6120
2017-06-26T10:36:10.796Z,7036
2017-06-26T10:37:10.834Z,6164
2017-06-26T10:38:10.571Z,5756
2017-06-26T10:39:10.919Z,6676
2017-06-26T10:40:10.656Z,6172
2017-06-26T10:41:11.003Z,5532
2017-06-26T10:42:11.049Z,6228
2017-06-26T10:43:11.099Z,7248
2017-06-26T10:44:11.138Z,6936
2017-06-26T10:45:10.867Z,6896
2017-06-26T10:46:11.231Z,8508
2017-06-26T10:47:10.954Z,9584
2017-06-26T10:48:11.307Z,8484
2017-06-26T10:49:11.348Z,9084
2017-06-26T10:50:12.015Z,15988
2017-06-26T10:51:11.746Z,14616
2017-06-26T10:52:11.480Z,11420
2017-06-26T10:53:11.521Z,11288
2017-06-26T10:54:11.311Z,12828
2017-06-26T10:55:11.301Z,9872
2017-06-26T10:56:11.342Z,8304
2017-06-26T10:57:11.692Z,8904
2017-06-26T10:58:11.428Z,8260
2017-06-26T10:59:11.466Z,7284
2017-06-26T11:00:11.516Z,6292
2017-06-26T11:01:11.868Z,6048
2017-06-26T11:02:11.909Z,5620
2017-06-26T11:03:11.946Z,6264
2017-06-26T11:04:11.994Z,6404
2017-06-26T11:05:12.347Z,6640
2017-06-26T11:06:12.081Z,7396
2017-06-26T11:07:11.816Z,8380
2017-06-26T11:08:12.475Z,7388
2017-06-26T11:09:11.900Z,4916
2017-06-26T11:10:11.950Z,4312
2017-06-26T11:11:11.984Z,3728
2017-06-26T11:12:12.032Z,3732
2017-06-26T11:13:12.071Z,4260
2017-06-26T11:14:12.425Z,3404
2017-06-26T11:15:12.467Z,2248
2017-06-26T11:16:12.231Z,2436
2017-06-26T11:17:12.243Z,3184
2017-06-26T11:18:12.286Z,5128
2017-06-26T11:19:12.637Z,8012
2017-06-26T11:20:12.681Z,10016
2017-06-26T11:21:12.721Z,7216
2017-06-26T11:22:12.761Z,4312
2017-06-26T11:23:12.805Z,3700
2017-06-26T11:24:12.569Z,4408
2017-06-26T11:25:13.204Z,4888
2017-06-26T11:26:12.935Z,4852
2017-06-26T11:27:12.980Z,4968
2017-06-26T11:28:13.024Z,6424
2017-06-26T11:29:13.063Z,8716
2017-06-26T11:30:12.801Z,10880
2017-06-26T11:31:13.146Z,9228
2017-06-26T11:32:12.880Z,9460
2017-06-26T11:33:13.536Z,11824
2017-06-26T11:34:13.274Z,13004
2017-06-26T11:35:13.009Z,12868
2017-06-26T11:36:13.049Z,13648
2017-06-26T11:37:13.091Z,17280
2017-06-26T11:38:13.439Z,16992
2017-06-26T11:39:13.173Z,20032
2017-06-26T11:40:13.833Z,16564
2017-06-26T11:41:13.289Z,14548
2017-06-26T11:42:13.612Z,17792
2017-06-26T11:43:13.345Z,17856
2017-06-26T11:44:13.698Z,17216
2017-06-26T11:45:14.047Z,16264
2017-06-26T11:46:13.481Z,14336
2017-06-26T11:47:13.831Z,12444
2017-06-26T11:48:13.569Z,11964
2017-06-26T11:49:13.912Z,11492
2017-06-26T11:50:13.649Z,9832
2017-06-26T11:51:13.692Z,8212
2017-06-26T11:52:13.732Z,7804
2017-06-26T11:53:13.779Z,8088
2017-06-26T11:54:14.135Z,8872
2017-06-26T11:55:13.869Z,10396
2017-06-26T11:56:13.913Z,11328
2017-06-26T11:57:13.955Z,12032
2017-06-26T11:58:13.994Z,13728
2017-06-26T11:59:14.044Z,17888
2017-06-26T12:00:14.392Z,19072
2017-06-26T12:01:14.126Z,19168
2017-06-26T12:02:14.171Z,17024
2017-06-26T12:03:14.522Z,15312
2017-06-26T12:04:14.254Z,14244
2017-06-26T12:05:14.919Z,14784
2017-06-26T12:06:14.345Z,16172
2017-06-26T12:07:14.699Z,16228
2017-06-26T12:08:14.438Z,18336
2017-06-26T12:09:14.480Z,17312
2017-06-26T12:10:14.829Z,18784
2017-06-26T12:11:14.905Z,14444
2017-06-26T12:12:14.613Z,13564
2017-06-26T12:13:14.654Z,12128
2017-06-26T12:14:15.008Z,12564
2017-06-26T12:15:15.050Z,12164
2017-06-26T12:16:15.446Z,12452
2017-06-26T12:17:14.835Z,11320
2017-06-26T12:18:14.879Z,11788
2017-06-26T12:19:14.923Z,12188
2017-06-26T12:20:14.989Z,11444
2017-06-26T12:21:15.010Z,11860
2017-06-26T12:22:15.057Z,11004
2017-06-26T12:23:16.030Z,10704
2017-06-26T12:24:15.450Z,10792
2017-06-26T12:25:15.191Z,9640
2017-06-26T12:26:15.550Z,9760
2017-06-26T12:27:15.271Z,10100
2017-06-26T12:28:15.626Z,9476
2017-06-26T12:29:15.674Z,11712
2017-06-26T12:30:15.714Z,12724
2017-06-26T12:31:15.454Z,12728
2017-06-26T12:32:15.498Z,11880
2017-06-26T12:33:15.545Z,11804
2017-06-26T12:34:15.587Z,12744
2017-06-26T12:35:15.934Z,13308
2017-06-26T12:36:15.985Z,13172
2017-06-26T12:37:16.346Z,12724
2017-06-26T12:38:15.766Z,13064
2017-06-26T12:39:15.806Z,13396
2017-06-26T12:40:15.855Z,13720
2017-06-26T12:41:16.224Z,14072
2017-06-26T12:42:16.557Z,13860
2017-06-26T12:43:15.981Z,13780
2017-06-26T12:44:16.037Z,14112
2017-06-26T12:45:16.379Z,14220
2017-06-26T12:46:16.119Z,14856
2017-06-26T12:47:16.161Z,14684
2017-06-26T12:48:16.826Z,14672
2017-06-26T12:49:16.253Z,14632
2017-06-26T12:50:16.294Z,13536
2017-06-26T12:51:16.647Z,12136
2017-06-26T12:52:16.383Z,10952
2017-06-26T12:53:16.429Z,10484
2017-06-26T12:54:16.474Z,9912
2017-06-26T12:55:16.522Z,10024
2017-06-26T12:56:16.570Z,10656
2017-06-26T12:57:17.233Z,11356
2017-06-26T12:58:16.645Z,11692
2017-06-26T12:59:16.691Z,11300
2017-06-26T13:00:16.738Z,10084
2017-06-26T13:01:17.088Z,8540
2017-06-26T13:02:17.442Z,7840
2017-06-26T13:03:16.871Z,7472
2017-06-26T13:04:16.913Z,7152
2017-06-26T13:05:16.961Z,7292
2017-06-26T13:06:16.999Z,7496
2017-06-26T13:07:17.046Z,7356
2017-06-26T13:08:17.397Z,7456
2017-06-26T13:09:17.135Z,7644
2017-06-26T13:10:17.185Z,7380
2017-06-26T13:11:17.222Z,7184
2017-06-26T13:12:17.578Z,7672
2017-06-26T13:13:17.307Z,7924
2017-06-26T13:14:17.348Z,8144
2017-06-26T13:15:17.403Z,8520
2017-06-26T13:16:17.441Z,8412
2017-06-26T13:17:17.792Z,8540
2017-06-26T13:18:17.527Z,8596
2017-06-26T13:19:17.876Z,8144
2017-06-26T13:20:17.915Z,8224
2017-06-26T13:21:18.280Z,8144
2017-06-26T13:22:18.005Z,8112
2017-06-26T13:23:18.357Z,8648
2017-06-26T13:24:18.090Z,9496
2017-06-26T13:25:17.829Z,10392
2017-06-26T13:26:17.873Z,10856
2017-06-26T13:27:18.531Z,12204
2017-06-26T13:28:17.957Z,13028
2017-06-26T13:29:18.616Z,12564